Time;durP1;ratioP1;P1;durP2;ratioP2;P2;SDS_P1;SDS_P2;PMS_P1;PMS_P2;Temp;Humidity;BMP_temperature;BMP_pressure;BME280_temperature;BME280_humidity;BME280_pressure;Samples;Min_cycle;Max_cycle;Signal;HPM_P1;HPM_P2
2023/05/22 00:01:25;;;;;;;15.45;7.35;;;;;;;10.54;nan;99946.47;7343924;19;20358;-64
2023/05/22 00:03:53;;;;;;;15.02;8.00;;;;;;;10.62;nan;99942.44;7346779;19;20018;-66
2023/05/22 00:06:22;;;;;;;15.90;8.50;;;;;;;10.62;nan;99940.63;7348263;19;20022;-62
2023/05/22 00:08:47;;;;;;;9.88;7.20;;;;;;;10.62;nan;99945.94;7343667;19;20481;-61
2023/05/22 00:11:12;;;;;;;23.77;9.05;;;;;;;10.62;nan;99942.44;7343619;19;20473;-61
2023/05/22 00:13:45;;;;;;;14.95;7.68;;;;;;;10.66;nan;99934.13;7346167;19;20015;-61
2023/05/22 00:16:11;;;;;;;15.88;8.57;;;;;;;10.64;nan;99940.50;7347834;19;20035;-66
2023/05/22 00:18:41;;;;;;;16.30;8.50;;;;;;;10.68;nan;99942.88;7346485;19;20097;-65
2023/05/22 00:21:10;;;;;;;15.80;8.02;;;;;;;10.72;nan;99948.88;7345281;19;20118;-68
2023/05/22 00:23:38;;;;;;;17.75;8.35;;;;;;;10.79;nan;99955.50;7344866;19;20027;-66
2023/05/22 00:26:15;;;;;;;14.52;8.52;;;;;;;10.79;nan;99956.34;7346529;19;20026;-66
2023/05/22 00:28:43;;;;;;;13.15;7.50;;;;;;;10.78;nan;99953.78;7342510;19;20025;-69
2023/05/22 00:31:08;;;;;;;14.68;7.85;;;;;;;10.77;nan;99957.41;7342789;19;20015;-67
2023/05/22 00:33:35;;;;;;;16.45;7.75;;;;;;;10.76;nan;99961.88;7345598;19;20028;-67
2023/05/22 00:36:00;;;;;;;21.63;9.02;;;;;;;10.74;nan;99963.78;7343265;19;20420;-67
2023/05/22 00:38:31;;;;;;;16.30;8.20;;;;;;;10.73;nan;99956.75;7342930;19;20445;-67
2023/05/22 00:40:57;;;;;;;12.70;8.90;;;;;;;10.67;nan;99945.66;7345493;19;20025;-67
2023/05/22 00:43:26;;;;;;;14.18;9.60;;;;;;;10.66;nan;99943.94;7344695;19;20010;-69
2023/05/22 00:45:52;;;;;;;14.10;9.27;;;;;;;10.63;nan;99944.13;7342436;19;20018;-64
2023/05/22 00:48:21;;;;;;;16.73;9.20;;;;;;;10.67;nan;99950.97;7346356;19;20023;-66
2023/05/22 00:50:53;;;;;;;14.68;9.35;;;;;;;10.77;nan;99962.75;7340830;19;20018;-66
2023/05/22 00:53:22;;;;;;;13.32;9.05;;;;;;;10.74;nan;99958.47;7340239;19;20030;-66
2023/05/22 00:55:52;;;;;;;20.27;8.50;;;;;;;10.75;nan;99956.66;7343380;19;20018;-65
2023/05/22 00:58:17;;;;;;;18.40;9.77;;;;;;;10.75;nan;99949.50;7343941;19;20019;-63
2023/05/22 01:00:44;;;;;;;16.00;8.82;;;;;;;10.76;nan;99950.34;7340480;19;20476;-59
2023/05/22 01:03:13;;;;;;;22.00;9.52;;;;;;;10.75;nan;99953.97;7341742;19;20105;-60
2023/05/22 01:05:39;;;;;;;21.27;8.68;;;;;;;10.76;nan;99951.22;7339916;19;20033;-63
2023/05/22 01:08:07;;;;;;;34.92;12.15;;;;;;;10.80;nan;99952.72;7342282;19;20347;-60
2023/05/22 01:10:35;;;;;;;16.20;9.07;;;;;;;10.85;nan;99950.59;7342248;19;20098;-59
2023/05/22 01:13:33;;;;;;;16.33;9.73;;;;;;;10.91;nan;99952.00;7341840;19;20015;-59
2023/05/22 01:16:10;;;;;;;12.85;8.77;;;;;;;10.98;nan;99947.09;7341734;19;20022;-60
2023/05/22 01:19:16;;;;;;;19.13;10.55;;;;;;;10.99;nan;99935.47;7343417;19;20017;-60
2023/05/22 01:21:49;;;;;;;20.58;10.73;;;;;;;10.94;nan;99941.13;7341349;19;20039;-60
2023/05/22 01:24:27;;;;;;;24.75;12.10;;;;;;;10.91;nan;99942.19;7339526;19;20474;-61
2023/05/22 01:27:13;;;;;;;28.20;13.50;;;;;;;10.94;nan;99951.81;7339413;19;20018;-59
2023/05/22 01:29:46;;;;;;;25.30;12.88;;;;;;;10.86;nan;99954.97;7340976;19;20461;-59
2023/05/22 01:32:18;;;;;;;27.63;13.52;;;;;;;10.82;nan;99948.16;7337057;19;20029;-62
2023/05/22 01:34:46;;;;;;;23.73;13.85;;;;;;;10.76;nan;99947.69;7341538;19;20015;-60
2023/05/22 01:37:13;;;;;;;18.67;11.35;;;;;;;10.74;nan;99949.59;7344006;19;20031;-65
2023/05/22 01:39:44;;;;;;;19.35;10.80;;;;;;;10.70;nan;99945.44;7341914;19;20018;-60
2023/05/22 01:42:17;;;;;;;20.67;10.73;;;;;;;10.74;nan;99949.59;7348675;19;20022;-61
2023/05/22 01:44:43;;;;;;;21.73;12.05;;;;;;;10.67;nan;99940.31;7349570;19;20090;-61
2023/05/22 01:47:12;;;;;;;22.45;13.60;;;;;;;10.70;nan;99946.31;7357401;19;20019;-60
2023/05/22 01:49:42;;;;;;;25.52;16.85;;;;;;;10.66;nan;99941.28;7352736;19;20060;-65
2023/05/22 01:52:19;;;;;;;30.60;17.77;;;;;;;10.69;nan;99941.94;7349129;19;20364;-61
2023/05/22 01:54:51;;;;;;;25.65;20.00;;;;;;;10.67;nan;99946.50;7355375;19;20018;-61
2023/05/22 01:57:26;;;;;;;30.20;20.13;;;;;;;10.71;nan;99941.84;7362390;19;20033;-60
2023/05/22 02:00:03;;;;;;;33.90;18.77;;;;;;;10.71;nan;99937.34;7350193;19;20466;-62
2023/05/22 02:02:34;;;;;;;28.80;18.20;;;;;;;10.65;nan;99945.75;7350175;19;20607;-60
2023/05/22 02:05:03;;;;;;;32.20;19.83;;;;;;;10.65;nan;99942.22;7345487;19;20693;-69
2023/05/22 02:07:32;;;;;;;31.83;19.70;;;;;;;10.64;nan;99945.84;7349368;19;20026;-58
2023/05/22 02:09:57;;;;;;;27.95;18.67;;;;;;;10.61;nan;99938.06;7347469;19;20445;-58
2023/05/22 02:12:23;;;;;;;28.48;20.65;;;;;;;10.62;nan;99953.09;7347710;19;20102;-62
2023/05/22 02:14:56;;;;;;;30.75;21.00;;;;;;;10.59;nan;99935.50;7348292;19;20023;-61
2023/05/22 02:17:23;;;;;;;35.67;21.55;;;;;;;10.59;nan;99939.97;7346277;19;20019;-62
2023/05/22 02:22:22;;;;;;;32.97;21.35;;;;;;;10.49;nan;99942.41;7348226;19;20431;-63
2023/05/22 02:24:59;;;;;;;32.97;20.70;;;;;;;10.55;nan;99950.84;7350017;19;20009;-62
2023/05/22 02:27:30;;;;;;;30.95;21.30;;;;;;;10.51;nan;99946.66;7348170;19;20393;-64
2023/05/22 02:29:55;;;;;;;29.15;20.67;;;;;;;10.47;nan;99945.19;7349678;19;20019;-67
2023/05/22 02:32:27;;;;;;;32.58;20.75;;;;;;;10.50;nan;99952.94;7350602;19;20037;-64
2023/05/22 02:34:52;;;;;;;33.50;19.77;;;;;;;10.54;nan;99950.94;7351595;19;20036;-64
2023/05/22 02:37:17;;;;;;;33.10;20.08;;;;;;;10.57;nan;99950.75;7346024;19;20014;-68
2023/05/22 02:39:43;;;;;;;36.25;19.60;;;;;;;10.62;nan;99945.94;7347899;19;20015;-65
2023/05/22 02:42:10;;;;;;;27.27;17.77;;;;;;;10.65;nan;99952.88;7346985;19;20091;-65
2023/05/22 02:44:36;;;;;;;28.38;18.38;;;;;;;10.71;nan;99958.69;7343151;19;20011;-63
2023/05/22 02:47:01;;;;;;;34.90;20.77;;;;;;;10.77;nan;99957.41;7348079;19;20056;-64
2023/05/22 02:49:27;;;;;;;27.60;19.60;;;;;;;10.87;nan;99967.34;7344756;19;20029;-64
2023/05/22 02:52:04;;;;;;;37.40;20.33;;;;;;;10.97;nan;99958.72;7348024;19;20035;-64
2023/05/22 02:54:30;;;;;;;25.17;19.35;;;;;;;11.07;nan;99965.13;7349077;19;20355;-69
2023/05/22 02:56:59;;;;;;;34.53;18.95;;;;;;;11.14;nan;99967.28;7349455;19;20026;-65
2023/05/22 02:59:25;;;;;;;37.40;20.35;;;;;;;11.26;nan;99971.78;7348413;19;20357;-65
2023/05/22 03:01:50;;;;;;;32.42;18.48;;;;;;;11.39;nan;99974.47;7355296;19;20271;-65
2023/05/22 03:04:22;;;;;;;35.95;19.48;;;;;;;11.51;nan;99967.41;7350893;19;20375;-65
2023/05/22 03:06:49;;;;;;;34.97;19.15;;;;;;;11.52;nan;99969.09;7349521;19;20026;-64
2023/05/22 03:09:15;;;;;;;17.40;11.60;;;;;;;11.60;nan;99980.97;7350485;19;20014;-62
2023/05/22 03:11:41;;;;;;;29.05;16.02;;;;;;;11.65;nan;99975.28;7347866;19;20043;-65
2023/05/22 03:14:07;;;;;;;25.65;12.52;;;;;;;11.71;nan;99976.69;7349188;19;20031;-65
2023/05/22 03:16:34;;;;;;;25.98;13.85;;;;;;;11.79;nan;99974.34;7350501;19;20015;-65
2023/05/22 03:19:10;;;;;;;20.70;12.13;;;;;;;11.94;nan;99966.09;7351696;19;20120;-65
2023/05/22 03:21:40;;;;;;;21.77;12.23;;;;;;;12.02;nan;99970.03;7347673;19;20051;-65
2023/05/22 03:24:06;;;;;;;18.52;12.00;;;;;;;12.17;nan;99972.47;7345164;19;20014;-72
2023/05/22 03:26:31;;;;;;;28.30;13.38;;;;;;;12.29;nan;99963.56;7346009;19;20011;-68
2023/05/22 03:29:00;;;;;;;19.00;12.93;;;;;;;12.41;nan;99953.78;7347641;19;20022;-68
2023/05/22 03:31:31;;;;;;;20.08;13.48;;;;;;;12.53;nan;99960.00;7344102;19;20639;-70
2023/05/22 03:34:07;;;;;;;21.73;14.00;;;;;;;12.66;nan;99950.94;7349004;19;20481;-71
2023/05/22 03:36:37;;;;;;;27.55;14.45;;;;;;;12.78;nan;99951.84;7352137;19;20050;-70
2023/05/22 03:39:06;;;;;;;25.95;15.70;;;;;;;12.93;nan;99964.06;7346424;19;20047;-68
2023/05/22 03:41:38;;;;;;;31.25;16.05;;;;;;;13.05;nan;99956.94;7348774;19;20096;-70
2023/05/22 03:44:11;;;;;;;35.78;16.35;;;;;;;13.22;nan;99948.47;7345751;19;20018;-69
2023/05/22 03:46:42;;;;;;;30.25;16.40;;;;;;;13.34;nan;99942.16;7345190;19;20014;-69
2023/05/22 03:49:08;;;;;;;30.58;17.25;;;;;;;13.49;nan;99947.31;7343381;19;20023;-70
2023/05/22 03:51:35;;;;;;;33.63;17.67;;;;;;;13.60;nan;99952.66;7344116;19;20025;-69
2023/05/22 03:54:10;;;;;;;32.42;18.00;;;;;;;13.73;nan;99958.75;7345077;19;20031;-70
2023/05/22 03:56:35;;;;;;;31.10;18.55;;;;;;;13.77;nan;99954.84;7349455;19;20325;-69
2023/05/22 03:59:00;;;;;;;37.63;19.73;;;;;;;13.80;nan;99957.28;7345957;19;20010;-69
2023/05/22 04:01:29;;;;;;;33.10;18.27;;;;;;;13.84;nan;99956.06;7345776;19;20086;-70
2023/05/22 04:03:55;;;;;;;35.35;17.50;;;;;;;13.87;nan;99952.31;7342640;19;20017;-68
2023/05/22 04:06:22;;;;;;;30.92;19.20;;;;;;;13.92;nan;99956.31;7342586;19;20014;-69
2023/05/22 04:08:48;;;;;;;30.45;19.02;;;;;;;13.94;nan;99956.19;7344380;19;20037;-69
2023/05/22 04:11:22;;;;;;;45.35;19.20;;;;;;;13.90;nan;99954.72;7347427;19;20040;-68
2023/05/22 04:13:49;;;;;;;35.95;20.48;;;;;;;13.82;nan;99964.22;7342619;19;20014;-69
2023/05/22 04:16:20;;;;;;;38.08;18.85;;;;;;;13.77;nan;99970.91;7342478;19;20019;-69
2023/05/22 04:18:50;;;;;;;33.60;17.70;;;;;;;13.72;nan;99973.97;7343475;19;20480;-71
2023/05/22 04:21:16;;;;;;;31.25;19.45;;;;;;;13.69;nan;99971.53;7343382;19;20033;-71
2023/05/22 04:23:42;;;;;;;33.35;20.85;;;;;;;13.64;nan;99970.22;7344550;19;20010;-72
2023/05/22 04:26:07;;;;;;;31.40;20.40;;;;;;;13.58;nan;99976.88;7349310;19;20023;-70
2023/05/22 04:28:33;;;;;;;28.55;18.13;;;;;;;13.52;nan;99974.72;7344017;19;20022;-71
2023/05/22 04:31:01;;;;;;;30.70;19.02;;;;;;;13.43;nan;99978.13;7341969;19;20027;-73
2023/05/22 04:33:27;;;;;;;32.03;19.40;;;;;;;13.38;nan;99975.78;7341740;19;20010;-70
2023/05/22 04:35:53;;;;;;;27.42;18.50;;;;;;;13.38;nan;99969.56;7341446;19;20018;-71
2023/05/22 04:38:19;;;;;;;26.35;17.88;;;;;;;13.40;nan;99979.19;7346929;19;20021;-69
2023/05/22 04:40:46;;;;;;;25.90;18.00;;;;;;;13.42;nan;99969.22;7342666;19;20080;-69
2023/05/22 04:43:13;;;;;;;23.27;17.25;;;;;;;13.42;nan;99973.72;7340560;19;20022;-71
2023/05/22 04:45:41;;;;;;;27.38;16.63;;;;;;;13.41;nan;99969.34;7343499;19;20017;-69
2023/05/22 04:48:06;;;;;;;29.10;17.73;;;;;;;13.44;nan;99966.41;7343282;19;20496;-69
2023/05/22 04:50:34;;;;;;;22.42;16.20;;;;;;;13.38;nan;99975.78;7342722;19;20026;-68
2023/05/22 04:53:04;;;;;;;29.08;17.70;;;;;;;13.31;nan;99979.91;7344656;19;20028;-70
2023/05/22 04:55:34;;;;;;;25.30;17.73;;;;;;;13.26;nan;99974.03;7343244;19;20341;-69
2023/05/22 04:58:01;;;;;;;24.67;16.17;;;;;;;13.26;nan;99982.09;7346775;19;20070;-70
2023/05/22 05:00:27;;;;;;;24.88;16.40;;;;;;;13.22;nan;99977.06;7340872;19;20340;-68
2023/05/22 05:02:53;;;;;;;27.08;19.85;;;;;;;13.14;nan;99982.13;7340962;19;20011;-69
2023/05/22 05:05:18;;;;;;;35.90;17.52;;;;;;;13.11;nan;99985.91;7343582;19;20464;-70
2023/05/22 05:07:50;;;;;;;21.00;15.57;;;;;;;13.08;nan;99995.03;7345399;19;20090;-71
2023/05/22 05:10:18;;;;;;;23.85;16.38;;;;;;;13.03;nan;99996.34;7343664;19;20465;-70
2023/05/22 05:12:46;;;;;;;23.90;17.00;;;;;;;12.90;nan;99987.53;7341720;19;20461;-70
2023/05/22 05:15:15;;;;;;;22.45;16.25;;;;;;;12.80;nan;99983.84;7344420;19;20018;-70
2023/05/22 05:17:40;;;;;;;24.58;17.98;;;;;;;12.65;nan;99976.00;7338495;19;20022;-70
2023/05/22 05:20:07;;;;;;;31.17;18.92;;;;;;;12.60;nan;99971.97;7341293;19;20339;-71
2023/05/22 05:22:33;;;;;;;29.50;19.73;;;;;;;12.54;nan;99978.59;7339644;19;20547;-70
2023/05/22 05:25:04;;;;;;;25.63;19.30;;;;;;;12.50;nan;99974.47;7338539;19;20026;-70
2023/05/22 05:27:32;;;;;;;28.38;20.77;;;;;;;12.47;nan;99972.03;7340639;19;20040;-71
2023/05/22 05:30:04;;;;;;;31.45;21.50;;;;;;;12.41;nan;99974.31;7342520;19;20022;-72
2023/05/22 05:32:43;;;;;;;32.30;21.38;;;;;;;12.32;nan;99967.78;7339602;19;20006;-69
2023/05/22 05:35:29;;;;;;;36.75;23.23;;;;;;;12.34;nan;99976.56;7339826;19;20018;-69
2023/05/22 05:38:06;;;;;;;32.88;22.15;;;;;;;12.35;nan;99984.47;7339552;19;20041;-73
2023/05/22 05:40:35;;;;;;;33.13;20.92;;;;;;;12.29;nan;99982.25;7339164;19;20031;-68
2023/05/22 05:43:08;;;;;;;33.70;22.73;;;;;;;12.29;nan;99998.31;7341774;19;20095;-68
2023/05/22 05:45:45;;;;;;;35.60;25.35;;;;;;;12.30;nan;100008.00;7339671;19;20434;-69
2023/05/22 05:48:11;;;;;;;38.53;25.70;;;;;;;12.17;nan;100001.00;7341075;19;20356;-68
2023/05/22 05:50:40;;;;;;;44.50;27.17;;;;;;;12.15;nan;100011.81;7339136;19;20025;-68
2023/05/22 05:53:15;;;;;;;35.20;24.45;;;;;;;12.16;nan;100010.00;7338383;19;20473;-68
2023/05/22 05:55:46;;;;;;;43.72;27.33;;;;;;;12.17;nan;100006.34;7339445;19;20349;-71
2023/05/22 05:58:12;;;;;;;36.15;25.60;;;;;;;12.20;nan;100011.44;7342160;19;20039;-70
2023/05/22 06:00:44;;;;;;;41.38;24.48;;;;;;;12.21;nan;100003.31;7338484;19;20022;-69
2023/05/22 06:03:10;;;;;;;45.20;27.40;;;;;;;12.14;nan;100002.06;7337618;19;20366;-70
2023/05/22 06:05:49;;;;;;;40.10;26.13;;;;;;;12.15;nan;99992.25;7338401;19;20090;-69
2023/05/22 06:08:23;;;;;;;33.88;24.25;;;;;;;12.13;nan;100003.03;7338135;19;20022;-70
2023/05/22 06:10:52;;;;;;;39.65;25.38;;;;;;;12.14;nan;99999.41;7338295;19;20018;-68
2023/05/22 06:13:42;;;;;;;35.42;25.50;;;;;;;12.18;nan;100008.06;7339055;19;20018;-69
2023/05/22 06:16:08;;;;;;;32.85;24.67;;;;;;;12.20;nan;100014.97;7340223;19;20014;-69
2023/05/22 06:18:38;;;;;;;41.85;25.63;;;;;;;12.23;nan;100003.22;7338732;19;20041;-69
2023/05/22 06:21:05;;;;;;;31.35;23.95;;;;;;;12.28;nan;100003.75;7342228;19;20371;-71
2023/05/22 06:23:31;;;;;;;34.92;23.90;;;;;;;12.31;nan;99996.34;7337488;19;20356;-70
2023/05/22 06:25:57;;;;;;;31.00;23.30;;;;;;;12.37;nan;100011.09;7337995;19;20017;-70
2023/05/22 06:28:26;;;;;;;33.58;25.02;;;;;;;12.38;nan;100010.13;7337654;19;20469;-68
2023/05/22 06:30:55;;;;;;;36.83;24.65;;;;;;;12.37;nan;100013.78;7345082;19;20019;-69
2023/05/22 06:33:22;;;;;;;35.53;22.65;;;;;;;12.40;nan;100004.69;7345360;19;20082;-68
2023/05/22 06:35:47;;;;;;;39.25;24.08;;;;;;;12.44;nan;99998.97;7344911;19;20010;-69
2023/05/22 06:40:48;;;;;;;34.13;24.35;;;;;;;12.61;nan;99997.75;7347644;19;20015;-68
2023/05/22 06:43:18;;;;;;;31.77;20.92;;;;;;;12.70;nan;99984.53;7343999;19;20461;-68
2023/05/22 06:45:48;;;;;;;35.13;26.23;;;;;;;12.75;nan;99975.31;7345107;19;20015;-68
2023/05/22 06:48:20;;;;;;;33.63;26.15;;;;;;;12.84;nan;99985.31;7345402;19;20014;-69
2023/05/22 06:51:14;;;;;;;35.13;24.85;;;;;;;12.92;nan;99991.81;7346766;19;20015;-68
2023/05/22 06:53:39;;;;;;;33.45;23.75;;;;;;;12.93;nan;100004.22;7345523;19;20078;-71
2023/05/22 06:56:11;;;;;;;31.33;23.77;;;;;;;12.89;nan;100008.06;7349274;19;20030;-69
2023/05/22 06:59:02;;;;;;;36.22;25.73;;;;;;;12.88;nan;100014.41;7348325;19;20089;-71
2023/05/22 07:01:46;;;;;;;30.92;25.05;;;;;;;12.81;nan;99990.91;7346731;19;20033;-68
2023/05/22 07:04:14;;;;;;;34.15;26.10;;;;;;;12.82;nan;99987.25;7343485;19;20116;-70
2023/05/22 07:06:56;;;;;;;31.90;24.75;;;;;;;12.91;nan;99987.41;7344454;19;20070;-68
2023/05/22 07:09:21;;;;;;;35.83;24.67;;;;;;;12.95;nan;99991.56;7343959;19;20015;-70
2023/05/22 07:11:50;;;;;;;34.75;25.55;;;;;;;12.96;nan;99984.41;7343507;19;20014;-71
2023/05/22 07:14:23;;;;;;;32.03;25.67;;;;;;;12.99;nan;99989.50;7344540;19;20376;-70
2023/05/22 07:16:50;;;;;;;41.25;27.70;;;;;;;12.93;nan;100011.38;7343429;19;20107;-68
2023/05/22 07:19:26;;;;;;;36.17;26.55;;;;;;;12.75;nan;100043.06;7354500;19;20014;-71
2023/05/22 07:21:58;;;;;;;34.63;27.02;;;;;;;12.69;nan;100036.31;7364998;19;20050;-72
2023/05/22 07:24:27;;;;;;;35.35;26.35;;;;;;;12.68;nan;99983.78;7362054;19;20053;-70
2023/05/22 07:26:56;;;;;;;33.33;24.05;;;;;;;12.86;nan;99988.75;7348184;19;20092;-67
2023/05/22 07:29:21;;;;;;;37.03;27.25;;;;;;;12.92;nan;99999.84;7349525;19;20534;-68
2023/05/22 07:31:48;;;;;;;36.38;26.85;;;;;;;12.98;nan;100009.22;7344860;19;20019;-71
2023/05/22 07:34:15;;;;;;;35.60;26.13;;;;;;;13.04;nan;100004.25;7343071;19;20047;-72
2023/05/22 07:36:42;;;;;;;38.28;27.05;;;;;;;13.18;nan;99991.69;7342643;19;20029;-69
2023/05/22 07:39:08;;;;;;;38.00;26.27;;;;;;;13.24;nan;100008.13;7342724;19;20010;-69
2023/05/22 07:41:36;;;;;;;37.00;27.30;;;;;;;13.19;nan;100009.44;7340823;19;20026;-72
2023/05/22 07:44:02;;;;;;;35.55;26.65;;;;;;;13.17;nan;100011.38;7341541;19;20057;-70
2023/05/22 07:46:36;;;;;;;37.35;26.67;;;;;;;13.24;nan;100009.94;7346828;19;20025;-70
2023/05/22 07:49:09;;;;;;;39.17;28.80;;;;;;;13.28;nan;100017.63;7342983;19;20311;-70
2023/05/22 07:51:45;;;;;;;35.58;26.17;;;;;;;13.40;nan;100021.19;7342654;19;20479;-70
2023/05/22 07:54:18;;;;;;;37.47;27.30;;;;;;;13.54;nan;100004.06;7342811;19;20011;-70
2023/05/22 07:56:47;;;;;;;40.35;25.70;;;;;;;13.95;nan;100001.63;7342912;19;20578;-70
2023/05/22 07:59:14;;;;;;;37.25;28.25;;;;;;;14.33;nan;100011.97;7342920;19;20015;-70
2023/05/22 08:01:40;;;;;;;39.28;26.38;;;;;;;14.49;nan;100001.72;7343322;19;20800;-70
2023/05/22 08:04:10;;;;;;;33.70;23.85;;;;;;;14.63;nan;100013.16;7342092;19;20036;-71
2023/05/22 08:06:38;;;;;;;30.67;24.00;;;;;;;14.65;nan;100025.47;7347888;19;20006;-70
2023/05/22 08:09:04;;;;;;;36.30;25.85;;;;;;;14.49;nan;100027.69;7342426;19;20006;-70
2023/05/22 08:11:30;;;;;;;34.47;25.15;;;;;;;14.23;nan;100021.72;7341954;19;20107;-72
2023/05/22 08:13:59;;;;;;;37.58;25.90;;;;;;;13.99;nan;100029.91;7343579;19;20034;-71
2023/05/22 08:16:26;;;;;;;34.55;25.00;;;;;;;13.90;nan;100032.44;7341663;19;20330;-70
2023/05/22 08:18:52;;;;;;;32.47;24.70;;;;;;;13.93;nan;100032.22;7342808;19;20029;-70
2023/05/22 08:21:17;;;;;;;32.38;25.05;;;;;;;14.04;nan;100032.22;7343317;19;20010;-71
2023/05/22 08:26:18;;;;;;;34.55;25.17;;;;;;;14.36;nan;100016.22;7341353;19;20014;-71
2023/05/22 08:28:48;;;;;;;31.15;23.52;;;;;;;14.68;nan;100022.50;7343164;19;20050;-71
2023/05/22 08:31:15;;;;;;;30.52;23.20;;;;;;;15.05;nan;100014.09;7343267;19;20078;-71
2023/05/22 08:33:41;;;;;;;26.70;21.45;;;;;;;15.40;nan;100014.63;7341459;19;20031;-71
2023/05/22 08:36:10;;;;;;;29.92;22.45;;;;;;;15.72;nan;100008.34;7345624;19;20021;-71
2023/05/22 08:38:37;;;;;;;28.20;22.35;;;;;;;16.03;nan;100018.13;7341070;19;20114;-72
2023/05/22 08:41:11;;;;;;;28.23;23.73;;;;;;;16.15;nan;100006.28;7341268;19;20022;-71
2023/05/22 08:43:40;;;;;;;31.95;23.05;;;;;;;16.29;nan;100008.59;7343659;19;20018;-71
2023/05/22 08:46:07;;;;;;;34.17;23.08;;;;;;;16.54;nan;100007.25;7348636;19;20015;-72
2023/05/22 08:48:43;;;;;;;28.48;22.52;;;;;;;16.77;nan;100007.88;7343779;19;20398;-69
2023/05/22 08:51:18;;;;;;;31.50;23.77;;;;;;;16.78;nan;100006.03;7349391;19;20023;-70
2023/05/22 08:53:45;;;;;;;26.88;21.73;;;;;;;16.77;nan;99997.09;7343338;19;20021;-71
2023/05/22 08:56:11;;;;;;;28.13;21.35;;;;;;;16.80;nan;99986.06;7342980;19;20033;-71
2023/05/22 08:58:38;;;;;;;25.02;20.42;;;;;;;16.85;nan;99991.00;7342946;19;20045;-71
2023/05/22 09:01:06;;;;;;;27.92;20.77;;;;;;;16.85;nan;99983.78;7340787;19;20037;-71
2023/05/22 09:03:33;;;;;;;25.67;20.70;;;;;;;16.86;nan;99985.50;7341338;19;20342;-70
2023/05/22 09:05:58;;;;;;;27.80;21.40;;;;;;;17.07;nan;99993.41;7340464;19;20529;-70
2023/05/22 09:08:24;;;;;;;26.38;20.98;;;;;;;17.36;nan;99978.09;7344778;19;20566;-70
2023/05/22 09:10:48;;;;;;;24.73;20.02;;;;;;;17.82;nan;99980.97;7339809;19;20022;-70
2023/05/22 09:13:24;;;;;;;23.00;18.50;;;;;;;18.30;nan;99984.28;7340125;19;20124;-69
2023/05/22 09:15:48;;;;;;;25.73;19.35;;;;;;;18.57;nan;99990.66;7340743;19;20046;-69
2023/05/22 09:18:13;;;;;;;23.52;17.15;;;;;;;18.93;nan;99987.03;7341547;19;20022;-69
2023/05/22 09:20:39;;;;;;;25.08;17.75;;;;;;;19.28;nan;99985.31;7345505;19;20041;-70
2023/05/22 09:23:16;;;;;;;21.05;17.30;;;;;;;19.82;nan;99985.03;7340965;19;20036;-68
2023/05/22 09:25:45;;;;;;;19.98;16.60;;;;;;;20.07;nan;99982.47;7341362;19;20014;-67
2023/05/22 09:28:12;;;;;;;18.17;15.15;;;;;;;20.56;nan;99978.94;7341109;19;20014;-67
2023/05/22 09:30:41;;;;;;;20.63;16.55;;;;;;;20.74;nan;99980.69;7341320;19;20621;-72
2023/05/22 09:33:19;;;;;;;22.02;15.88;;;;;;;20.75;nan;99982.38;7342232;19;20025;-72
2023/05/22 09:35:46;;;;;;;19.17;17.00;;;;;;;20.70;nan;99992.84;7339021;19;20086;-70
2023/05/22 09:38:15;;;;;;;18.25;15.60;;;;;;;20.69;nan;99988.44;7339250;19;20010;-70
2023/05/22 09:40:41;;;;;;;17.85;14.70;;;;;;;20.93;nan;99988.50;7343340;19;20025;-70
2023/05/22 09:43:12;;;;;;;16.70;14.13;;;;;;;21.36;nan;99988.19;7339870;19;20028;-70
2023/05/22 09:45:47;;;;;;;16.52;14.43;;;;;;;21.79;nan;99977.09;7339614;19;20037;-69
2023/05/22 09:48:16;;;;;;;19.63;15.00;;;;;;;22.00;nan;99978.28;7340375;19;20023;-71
2023/05/22 09:50:47;;;;;;;21.85;13.45;;;;;;;22.28;nan;99978.66;7340948;19;20022;-70
2023/05/22 09:53:15;;;;;;;18.33;14.68;;;;;;;22.52;nan;99975.00;7339221;19;20069;-70
2023/05/22 09:55:49;;;;;;;16.35;12.70;;;;;;;23.17;nan;99982.72;7340529;19;20015;-71
2023/05/22 09:58:18;;;;;;;14.30;12.80;;;;;;;23.44;nan;99974.00;7338351;19;20426;-69
2023/05/22 10:00:49;;;;;;;16.63;13.40;;;;;;;23.72;nan;99965.25;7340387;19;20070;-68
2023/05/22 10:03:23;;;;;;;15.73;13.75;;;;;;;24.15;nan;99967.13;7339750;19;20025;-69
2023/05/22 10:05:52;;;;;;;18.63;15.70;;;;;;;24.59;nan;99967.09;7345652;19;20488;-68
2023/05/22 10:08:24;;;;;;;16.75;15.00;;;;;;;24.79;nan;99967.31;7347719;19;20022;-68
2023/05/22 10:10:52;;;;;;;16.63;14.80;;;;;;;24.56;nan;99969.34;7346617;19;20018;-66
2023/05/22 10:13:21;;;;;;;16.90;13.95;;;;;;;24.56;nan;99967.47;7347863;19;20014;-67
2023/05/22 10:15:53;;;;;;;20.27;15.60;;;;;;;24.60;nan;99967.94;7347742;19;20014;-67
2023/05/22 10:18:20;;;;;;;20.70;16.00;;;;;;;24.50;nan;99962.78;7348671;19;20511;-67
2023/05/22 10:20:49;;;;;;;18.25;15.55;;;;;;;24.29;nan;99970.91;7346236;19;20017;-69
2023/05/22 10:23:17;;;;;;;17.00;15.20;;;;;;;23.84;nan;99958.31;7345746;19;20014;-68
2023/05/22 10:25:44;;;;;;;21.17;17.90;;;;;;;23.59;nan;99951.47;7348732;19;20053;-68
2023/05/22 10:28:27;;;;;;;19.48;16.15;;;;;;;23.39;nan;99964.69;7352885;19;20114;-69
2023/05/22 10:31:03;;;;;;;20.20;17.10;;;;;;;23.18;nan;99965.38;7349195;19;20499;-71
2023/05/22 10:34:00;;;;;;;18.63;15.25;;;;;;;22.71;nan;99965.53;7349350;19;20526;-68
2023/05/22 10:36:28;;;;;;;18.50;16.52;;;;;;;-143.58;100.00;61926.94;7347847;19;20402;-68
2023/05/22 10:41:48;;;;;;;18.42;15.93;;;;;;;-143.58;100.00;61926.94;7348820;19;20018;-70
2023/05/22 10:44:13;;;;;;;20.02;16.15;;;;;;;-143.58;100.00;61926.94;7348947;19;20041;-71
2023/05/22 10:46:52;;;;;;;21.70;17.50;;;;;;;22.29;nan;99960.50;7351254;19;20018;-70
2023/05/22 10:50:19;;;;;;;18.83;16.70;;;;;;;-143.58;100.00;61926.94;7350213;19;20011;-70
2023/05/22 10:53:52;;;;;;;21.33;16.77;;;;;;;-143.58;100.00;61926.94;7347659;19;20014;-70
2023/05/22 10:57:23;;;;;;;16.98;15.07;;;;;;;-143.58;100.00;61926.94;7351403;19;20019;-69
2023/05/22 11:01:11;;;;;;;;;;;;;;;-143.58;100.00;61926.94;7352781;19;20369;-68
2023/05/22 11:04:54;;;;;;;13.77;12.05;;;;;;;-143.58;100.00;61926.94;7356956;19;19985;-67
2023/05/22 11:08:18;;;;;;;16.60;12.13;;;;;;;-143.58;100.00;61926.94;7357450;19;20476;-69
2023/05/22 11:12:08;;;;;;;13.07;9.35;;;;;;;-143.58;100.00;61926.94;7357949;19;20014;-69
2023/05/22 11:15:37;;;;;;;12.18;9.52;;;;;;;-143.58;100.00;61926.94;7350794;19;20022;-67
2023/05/22 11:19:07;;;;;;;11.65;8.90;;;;;;;-143.58;100.00;61926.94;7345674;19;20018;-67
2023/05/22 11:22:45;;;;;;;11.65;8.57;;;;;;;-143.58;100.00;61926.94;7348567;19;20018;-67
2023/05/22 11:26:18;;;;;;;10.43;8.93;;;;;;;-143.58;100.00;61926.94;7350928;19;20054;-69
2023/05/22 11:29:47;;;;;;;14.50;11.57;;;;;;;-143.58;100.00;61926.94;7344764;19;20116;-66
2023/05/22 11:33:11;;;;;;;13.80;9.30;;;;;;;-143.58;100.00;61926.94;7349150;19;20014;-66
2023/05/22 11:36:45;;;;;;;16.48;11.55;;;;;;;-143.58;100.00;61926.94;7345641;19;20457;-67
2023/05/22 11:40:18;;;;;;;12.50;10.27;;;;;;;-143.58;100.00;61926.94;7344494;19;20031;-66
2023/05/22 11:43:43;;;;;;;15.40;10.15;;;;;;;-143.58;100.00;61926.94;7344655;19;20018;-67
2023/05/22 11:50:48;;;;;;;15.45;11.23;;;;;;;-143.58;100.00;61926.94;7347680;19;20022;-69
2023/05/22 11:54:19;;;;;;;15.02;11.50;;;;;;;-143.58;100.00;61926.94;7347850;19;20377;-65
